createdAt,value
2018-09-17T00:02:24.731Z,97060.33
2018-09-17T00:04:54.832Z,97060.66
2018-09-17T00:07:24.747Z,97063.31
2018-09-17T00:09:54.812Z,97056.34
2018-09-17T00:12:24.825Z,97054.15
2018-09-17T00:14:54.975Z,97050.94
2018-09-17T00:17:24.858Z,97048.64
2018-09-17T00:19:54.776Z,97043.09
2018-09-17T00:22:24.787Z,97053.55
2018-09-17T00:24:54.789Z,97053.97
2018-09-17T00:27:24.843Z,97052.69
2018-09-17T00:29:54.854Z,97046.96
2018-09-17T00:32:24.855Z,97049.66
2018-09-17T00:34:54.871Z,97049.71
2018-09-17T00:37:24.897Z,97049.02
2018-09-17T00:39:54.908Z,97042.74
2018-09-17T00:42:24.820Z,97041.97
2018-09-17T00:44:54.836Z,97046.05
2018-09-17T00:47:26.876Z,97044.16
2018-09-17T00:49:56.035Z,97038.21
2018-09-17T00:52:25.216Z,97041.33
2018-09-17T00:54:55.118Z,97040.27
2018-09-17T00:57:24.936Z,97028.23
2018-09-17T00:59:54.895Z,97034.55
2018-09-17T01:02:24.872Z,97036.19
2018-09-17T01:04:55.048Z,97040.68
2018-09-17T01:07:24.999Z,97040.53
2018-09-17T01:09:54.931Z,97038.10
2018-09-17T01:12:24.101Z,97045.34
2018-09-17T01:14:53.369Z,97043.46
2018-09-17T01:17:22.537Z,97040.98
2018-09-17T01:19:51.714Z,97041.86
2018-09-17T01:22:20.894Z,97036.45
2018-09-17T01:24:50.089Z,97032.78
2018-09-17T01:27:19.259Z,97037.33
2018-09-17T01:29:48.488Z,97038.89
2018-09-17T01:32:17.591Z,97033.30
2018-09-17T01:34:46.775Z,97033.52
2018-09-17T01:37:15.921Z,97027.93
2018-09-17T01:39:45.095Z,97034.00
2018-09-17T01:42:14.267Z,97035.15
2018-09-17T01:44:43.603Z,97029.08
2018-09-17T01:47:12.777Z,97031.41
2018-09-17T01:49:42.035Z,97029.55
2018-09-17T01:52:11.223Z,97026.94
2018-09-17T01:54:40.385Z,97029.77
2018-09-17T01:57:09.549Z,97035.84
2018-09-17T01:59:38.718Z,97035.02
2018-09-17T02:02:08.954Z,97031.27
2018-09-17T02:04:38.129Z,97031.91
2018-09-17T02:07:07.603Z,97028.61
2018-09-17T02:09:40.516Z,97031.97
2018-09-17T02:12:11.557Z,97032.30
2018-09-17T02:14:41.476Z,97035.20
2018-09-17T02:17:10.680Z,97029.61
2018-09-17T02:19:40.067Z,97040.91
2018-09-17T02:22:09.970Z,97040.08
2018-09-17T02:24:39.427Z,97037.66
2018-09-17T02:27:08.610Z,97039.75
2018-09-17T02:29:37.800Z,97042.80
2018-09-17T02:32:07.056Z,97044.17
2018-09-17T02:34:36.215Z,97043.95
2018-09-17T02:37:05.505Z,97047.88
2018-09-17T02:39:34.670Z,97045.33
2018-09-17T02:42:03.824Z,97047.81
2018-09-17T02:44:32.984Z,97048.05
2018-09-17T02:47:02.259Z,97047.31
2018-09-17T02:49:31.422Z,97040.67
2018-09-17T02:52:00.575Z,97040.95
2018-09-17T02:54:29.749Z,97036.72
2018-09-17T02:56:58.907Z,97037.03
2018-09-17T02:59:28.070Z,97044.52
2018-09-17T03:01:57.260Z,97041.13
2018-09-17T03:04:26.428Z,97044.23
2018-09-17T03:06:55.589Z,97045.55
2018-09-17T03:09:25.264Z,97048.55
2018-09-17T03:11:55.294Z,97050.58
2018-09-17T03:14:30.319Z,97049.88
2018-09-17T03:17:15.827Z,97053.23
2018-09-17T03:19:46.227Z,97056.89
2018-09-17T03:22:16.038Z,97051.53
2018-09-17T03:24:45.196Z,97055.79
2018-09-17T03:27:14.419Z,97061.09
2018-09-17T03:29:43.554Z,97059.03
2018-09-17T03:32:12.711Z,97058.65
2018-09-17T03:34:41.852Z,97059.37
2018-09-17T03:37:10.986Z,97071.75
2018-09-17T03:39:40.482Z,97065.79
2018-09-17T03:42:09.628Z,97067.66
2018-09-17T03:44:38.786Z,97072.70
2018-09-17T03:47:07.938Z,97068.93
2018-09-17T03:49:37.081Z,97071.70
2018-09-17T03:52:06.311Z,97070.69
2018-09-17T03:54:35.454Z,97079.77
2018-09-17T03:57:04.600Z,97078.72
2018-09-17T03:59:33.796Z,97084.80
2018-09-17T04:02:02.971Z,97092.77
2018-09-17T04:04:32.118Z,97095.95
2018-09-17T04:07:01.286Z,97103.25
2018-09-17T04:09:30.437Z,97100.41
2018-09-17T04:11:59.592Z,97097.83
2018-09-17T04:14:28.788Z,97096.28
2018-09-17T04:16:58.066Z,97097.16
2018-09-17T04:19:27.201Z,97101.80
2018-09-17T04:21:56.350Z,97098.39
2018-09-17T04:24:25.515Z,97097.83
2018-09-17T04:26:55.528Z,97098.27
2018-09-17T04:29:25.472Z,97093.31
2018-09-17T04:31:55.474Z,97093.91
2018-09-17T04:34:25.472Z,97091.30
2018-09-17T04:36:55.498Z,97089.43
2018-09-17T04:39:26.470Z,97092.02
2018-09-17T04:41:55.614Z,97088.48
2018-09-17T04:44:25.612Z,97088.92
2018-09-17T04:46:55.573Z,97096.28
2018-09-17T04:49:25.534Z,97098.43
2018-09-17T04:51:55.613Z,97099.50
2018-09-17T04:54:25.676Z,97095.88
2018-09-17T04:56:55.706Z,97097.36
2018-09-17T04:59:25.651Z,97101.68
2018-09-17T05:01:55.618Z,97102.66
2018-09-17T05:04:25.599Z,97101.39
2018-09-17T05:06:55.695Z,97095.59
2018-09-17T05:09:25.703Z,97092.41
2018-09-17T05:11:55.688Z,97094.08
2018-09-17T05:14:25.671Z,97099.47
2018-09-17T05:16:55.828Z,97099.50
2018-09-17T05:19:27.250Z,97111.12
2018-09-17T05:21:56.399Z,97104.42
2018-09-17T05:24:25.714Z,97104.35
2018-09-17T05:26:55.792Z,97107.02
2018-09-17T05:29:26.198Z,97097.73
2018-09-17T05:31:56.126Z,97098.85
2018-09-17T05:34:25.704Z,97106.30
2018-09-17T05:36:55.759Z,97108.08
2018-09-17T05:39:25.724Z,97111.66
2018-09-17T05:41:55.791Z,97105.02
2018-09-17T05:44:25.856Z,97108.17
2018-09-17T05:46:55.878Z,97115.81
2018-09-17T05:49:25.865Z,97112.37
2018-09-17T05:51:55.972Z,97104.64
2018-09-17T05:54:25.810Z,97104.55
2018-09-17T05:56:55.939Z,97105.09
2018-09-17T05:59:25.943Z,97103.38
2018-09-17T06:01:55.855Z,97110.77
2018-09-17T06:04:25.852Z,97118.03
2018-09-17T06:06:55.945Z,97115.63
2018-09-17T06:09:25.926Z,97113.45
2018-09-17T06:11:56.032Z,97112.89
2018-09-17T06:14:25.998Z,97108.66
2018-09-17T06:16:55.978Z,97116.30
2018-09-17T06:19:26.041Z,97117.52
2018-09-17T06:21:56.280Z,97113.44
2018-09-17T06:24:25.919Z,97118.95
2018-09-17T06:26:55.894Z,97113.83
2018-09-17T06:29:25.976Z,97113.66
2018-09-17T06:31:56.018Z,97117.08
2018-09-17T06:34:26.050Z,97117.37
2018-09-17T06:39:25.923Z,97123.27
2018-09-17T06:41:56.014Z,97123.19
2018-09-17T06:44:25.959Z,97127.81
2018-09-17T06:46:55.998Z,97124.59
2018-09-17T06:49:26.002Z,97121.81
2018-09-17T06:51:56.274Z,97128.87
2018-09-17T06:54:26.040Z,97125.03
2018-09-17T06:56:56.117Z,97126.32
2018-09-17T06:59:26.135Z,97128.26
2018-09-17T07:01:55.988Z,97114.14
2018-09-17T07:04:26.116Z,97122.58
2018-09-17T07:06:56.566Z,97117.68
2018-09-17T07:09:26.086Z,97122.30
2018-09-17T07:11:56.082Z,97123.27
2018-09-17T07:14:26.079Z,97128.83
2018-09-17T07:16:56.141Z,97124.83
2018-09-17T07:19:26.132Z,97129.95
2018-09-17T07:21:56.524Z,97130.63
2018-09-17T07:24:26.499Z,97129.19
2018-09-17T07:26:56.678Z,97132.84
2018-09-17T07:29:26.656Z,97139.02
2018-09-17T07:31:56.758Z,97138.23
2018-09-17T07:34:26.838Z,97137.52
2018-09-17T07:36:56.860Z,97128.00
2018-09-17T07:39:26.810Z,97126.03
2018-09-17T07:41:56.875Z,97128.20
2018-09-17T07:44:27.025Z,97127.03
2018-09-17T07:46:56.807Z,97130.08
2018-09-17T07:49:27.130Z,97136.50
2018-09-17T07:51:56.835Z,97131.81
2018-09-17T07:54:26.782Z,97137.19
2018-09-17T07:56:56.800Z,97136.80
2018-09-17T07:59:26.912Z,97135.31
2018-09-17T08:01:56.799Z,97137.91
2018-09-17T08:04:26.920Z,97135.00
2018-09-17T08:06:56.832Z,97140.12
2018-09-17T08:09:26.987Z,97135.73
2018-09-17T08:11:56.920Z,97132.19
2018-09-17T08:14:26.847Z,97123.88
2018-09-17T08:16:56.910Z,97119.09
2018-09-17T08:19:27.010Z,97116.46
2018-09-17T08:21:57.003Z,97117.63
2018-09-17T08:24:26.972Z,97122.84
2018-09-17T08:26:56.991Z,97122.92
2018-09-17T08:29:26.963Z,97122.75
2018-09-17T08:31:56.987Z,97122.17
2018-09-17T08:34:27.760Z,97116.58
2018-09-17T08:36:56.989Z,97125.18
2018-09-17T08:39:26.956Z,97118.78
2018-09-17T08:41:57.041Z,97118.05
2018-09-17T08:44:27.004Z,97121.05
2018-09-17T08:46:57.066Z,97121.11
2018-09-17T08:49:27.015Z,97121.11
2018-09-17T08:51:57.106Z,97122.53
2018-09-17T08:54:27.123Z,97119.59
2018-09-17T08:56:59.219Z,97112.66
2018-09-17T08:59:33.824Z,97116.67
2018-09-17T09:02:08.199Z,97115.66
2018-09-17T09:04:42.620Z,97112.98
2018-09-17T09:07:15.846Z,97109.22
2018-09-17T09:09:45.048Z,97113.25
2018-09-17T09:12:22.016Z,97106.29
2018-09-17T09:14:56.202Z,97106.06
2018-09-17T09:17:25.350Z,97100.41
2018-09-17T09:19:54.552Z,97099.88
2018-09-17T09:22:23.708Z,97102.30
2018-09-17T09:24:52.859Z,97097.20
2018-09-17T09:27:22.016Z,97087.22
2018-09-17T09:29:51.236Z,97083.47
2018-09-17T09:32:20.381Z,97081.27
2018-09-17T09:34:49.555Z,97076.98
2018-09-17T09:37:18.698Z,97081.00
2018-09-17T09:39:47.854Z,97080.44
2018-09-17T09:42:17.151Z,97076.41
2018-09-17T09:44:46.296Z,97081.22
2018-09-17T09:47:15.460Z,97083.42
2018-09-17T09:49:44.694Z,97077.53
2018-09-17T09:52:13.936Z,97070.28
2018-09-17T09:54:43.097Z,97072.17
2018-09-17T09:57:12.304Z,97073.23
2018-09-17T09:59:41.568Z,97074.31
2018-09-17T10:02:15.858Z,97072.97
2018-09-17T10:04:45.015Z,97068.94
2018-09-17T10:07:14.180Z,97068.92
2018-09-17T10:10:47.549Z,97071.06
2018-09-17T10:13:21.922Z,97069.20
2018-09-17T10:15:56.768Z,97067.50
2018-09-17T10:18:32.580Z,97061.44
2018-09-17T10:21:01.823Z,97057.00
2018-09-17T10:23:30.960Z,97059.16
2018-09-17T10:26:00.160Z,97061.99
2018-09-17T10:28:29.311Z,97054.50
2018-09-17T10:30:58.458Z,97057.77
2018-09-17T10:33:27.613Z,97056.08
2018-09-17T10:35:57.343Z,97049.38
2018-09-17T10:38:27.296Z,97053.11
2018-09-17T10:40:57.425Z,97049.19
2018-09-17T10:43:27.314Z,97045.16
2018-09-17T10:45:57.297Z,97044.88
2018-09-17T10:48:27.364Z,97046.56
2018-09-17T10:50:57.295Z,97040.19
2018-09-17T10:53:27.272Z,97038.63
2018-09-17T10:55:57.306Z,97039.33
2018-09-17T10:58:27.329Z,97039.62
2018-09-17T11:00:57.353Z,97039.90
2018-09-17T11:03:27.354Z,97034.90
2018-09-17T11:05:57.316Z,97033.40
2018-09-17T11:08:27.341Z,97037.17
2018-09-17T11:10:57.398Z,97029.88
2018-09-17T11:13:27.435Z,97030.80
2018-09-17T11:15:57.435Z,97028.10
2018-09-17T11:18:27.532Z,97022.64
2018-09-17T11:20:57.372Z,97015.89
2018-09-17T11:23:27.449Z,97015.10
2018-09-17T11:25:57.447Z,97018.45
2018-09-17T11:28:27.443Z,97020.25
2018-09-17T11:30:57.493Z,97020.22
2018-09-17T11:33:27.472Z,97019.87
2018-09-17T11:35:57.432Z,97005.16
2018-09-17T11:38:27.489Z,96999.96
2018-09-17T11:40:57.598Z,96999.09
2018-09-17T11:43:27.531Z,97004.00
2018-09-17T11:45:57.503Z,96999.58
2018-09-17T11:48:27.604Z,97000.73
2018-09-17T11:50:57.472Z,96993.52
2018-09-17T11:53:27.503Z,96989.25
2018-09-17T11:55:57.539Z,96984.45
2018-09-17T11:58:27.554Z,96979.45
2018-09-17T12:01:02.941Z,96980.95
2018-09-17T12:03:37.328Z,96980.84
2018-09-17T12:06:06.478Z,96977.38
2018-09-17T12:08:35.650Z,96980.23
2018-09-17T12:11:04.798Z,96979.22
2018-09-17T12:13:33.956Z,96981.23
2018-09-17T12:16:03.108Z,96967.98
2018-09-17T12:18:32.279Z,96969.33
2018-09-17T12:21:01.447Z,96966.87
2018-09-17T12:23:30.620Z,96964.27
2018-09-17T12:25:59.804Z,96958.35
2018-09-17T12:28:28.954Z,96959.19
2018-09-17T12:30:58.099Z,96955.76
2018-09-17T12:33:27.710Z,96953.64
2018-09-17T12:35:57.706Z,96950.02
2018-09-17T12:38:27.592Z,96948.91
2018-09-17T12:40:57.664Z,96948.97
2018-09-17T12:43:27.666Z,96939.48
2018-09-17T12:45:57.639Z,96944.58
2018-09-17T12:48:27.660Z,96935.36
2018-09-17T12:50:57.736Z,96939.23
2018-09-17T12:53:27.776Z,96928.86
2018-09-17T12:55:57.820Z,96925.57
2018-09-17T12:58:27.719Z,96918.31
2018-09-17T13:00:57.798Z,96920.16
2018-09-17T13:03:27.770Z,96911.62
2018-09-17T13:05:57.846Z,96913.50
2018-09-17T13:08:27.773Z,96899.68
2018-09-17T13:10:57.819Z,96898.17
2018-09-17T13:13:27.787Z,96897.42
2018-09-17T13:15:57.755Z,96900.53
2018-09-17T13:18:27.728Z,96898.32
2018-09-17T13:20:57.776Z,96896.42
2018-09-17T13:23:27.839Z,96893.33
2018-09-17T13:25:57.828Z,96893.89
2018-09-17T13:28:27.822Z,96892.14
2018-09-17T13:30:57.808Z,96893.62
2018-09-17T13:33:27.906Z,96893.13
2018-09-17T13:35:57.839Z,96886.39
2018-09-17T13:38:27.794Z,96881.66
2018-09-17T13:40:57.862Z,96886.89
2018-09-17T13:43:27.899Z,96884.15
2018-09-17T13:45:57.913Z,96875.41
2018-09-17T13:48:27.866Z,96868.22
2018-09-17T13:50:57.883Z,96869.97
2018-09-17T13:53:27.899Z,96870.31
2018-09-17T13:55:57.847Z,96862.17
2018-09-17T13:58:27.829Z,96860.66
2018-09-17T14:00:58.019Z,96858.67
2018-09-17T14:03:28.911Z,96850.84
2018-09-17T14:05:58.060Z,96854.17
2018-09-17T14:08:27.908Z,96847.63
2018-09-17T14:10:57.978Z,96848.78
2018-09-17T14:13:27.931Z,96838.08
2018-09-17T14:16:03.796Z,96838.84
2018-09-17T14:18:33.442Z,96835.59
2018-09-17T14:21:02.664Z,96833.90
2018-09-17T14:23:31.886Z,96830.60
2018-09-17T14:26:01.213Z,96827.80
2018-09-17T14:28:31.419Z,96830.90
2018-09-17T14:31:00.550Z,96822.39
2018-09-17T14:33:35.027Z,96826.73
2018-09-17T14:36:04.213Z,96827.45
2018-09-17T14:38:33.405Z,96821.66
2018-09-17T14:41:02.696Z,96822.36
2018-09-17T14:43:31.994Z,96819.70
2018-09-17T14:46:01.199Z,96816.41
2018-09-17T14:48:30.446Z,96817.69
2018-09-17T14:50:59.590Z,96818.38
2018-09-17T14:53:28.881Z,96812.82
2018-09-17T14:55:58.023Z,96808.05
2018-09-17T14:58:28.213Z,96811.41
2018-09-17T15:00:58.075Z,96804.62
2018-09-17T15:03:28.038Z,96806.03
2018-09-17T15:05:58.132Z,96806.38
2018-09-17T15:08:28.178Z,96800.69
2018-09-17T15:10:58.291Z,96804.40
2018-09-17T15:13:28.093Z,96804.20
2018-09-17T15:15:59.452Z,96798.00
2018-09-17T15:18:28.944Z,96799.59
2018-09-17T15:20:58.125Z,96794.20
2018-09-17T15:23:28.099Z,96792.95
2018-09-17T15:25:58.196Z,96792.14
2018-09-17T15:28:28.265Z,96792.08
2018-09-17T15:30:58.197Z,96792.03
2018-09-17T15:33:28.188Z,96788.82
2018-09-17T15:35:59.662Z,96789.67
2018-09-17T15:38:28.935Z,96787.27
2018-09-17T15:40:58.394Z,96784.53
2018-09-17T15:43:28.249Z,96778.56
2018-09-17T15:45:58.210Z,96779.69
2018-09-17T15:48:28.252Z,96780.34
2018-09-17T15:50:58.187Z,96782.52
2018-09-17T15:53:28.212Z,96775.02
2018-09-17T15:55:58.279Z,96773.27
2018-09-17T15:58:28.187Z,96770.83
2018-09-17T16:00:58.210Z,96767.63
2018-09-17T16:03:28.282Z,96766.56
2018-09-17T16:05:58.380Z,96763.97
2018-09-17T16:08:28.365Z,96762.62
2018-09-17T16:10:58.476Z,96764.34
2018-09-17T16:13:28.323Z,96763.53
2018-09-17T16:16:00.310Z,96760.64
2018-09-17T16:18:29.588Z,96763.04
2018-09-17T16:20:58.800Z,96765.78
2018-09-17T16:23:28.312Z,96769.58
2018-09-17T16:25:58.436Z,96767.45
2018-09-17T16:28:28.311Z,96770.77
2018-09-17T16:30:58.439Z,96759.72
2018-09-17T16:33:28.482Z,96754.42
2018-09-17T16:35:59.115Z,96751.53
2018-09-17T16:38:28.344Z,96751.85
2018-09-17T16:40:58.384Z,96756.95
2018-09-17T16:43:28.390Z,96762.64
2018-09-17T16:46:00.405Z,96753.23
2018-09-17T16:48:29.555Z,96756.31
2018-09-17T16:50:58.768Z,96752.11
2018-09-17T16:53:28.436Z,96748.12
2018-09-17T16:55:59.511Z,96751.12
2018-09-17T16:58:28.755Z,96749.80
2018-09-17T17:00:58.403Z,96745.80
2018-09-17T17:03:28.462Z,96748.03
2018-09-17T17:05:58.565Z,96747.26
2018-09-17T17:08:28.440Z,96744.89
2018-09-17T17:10:58.635Z,96746.59
2018-09-17T17:13:28.507Z,96743.95
2018-09-17T17:15:58.579Z,96745.89
2018-09-17T17:18:28.541Z,96749.18
2018-09-17T17:20:58.597Z,96751.38
2018-09-17T17:23:28.700Z,96746.88
2018-09-17T17:25:58.512Z,96750.45
2018-09-17T17:28:28.563Z,96749.42
2018-09-17T17:30:58.780Z,96745.42
2018-09-17T17:33:28.580Z,96747.89
2018-09-17T17:36:00.949Z,96748.52
2018-09-17T17:38:30.215Z,96748.58
2018-09-17T17:40:59.509Z,96752.42
2018-09-17T17:43:28.755Z,96751.12
2018-09-17T17:45:58.630Z,96759.30
2018-09-17T17:48:28.737Z,96757.22
2018-09-17T17:50:58.887Z,96755.38
2018-09-17T17:53:28.575Z,96756.52
2018-09-17T17:55:58.668Z,96758.97
2018-09-17T17:58:28.602Z,96754.71
2018-09-17T18:06:05.174Z,96770.28
2018-09-17T18:08:34.344Z,96764.11
2018-09-17T18:11:03.493Z,96770.30
2018-09-17T18:13:32.666Z,96771.94
2018-09-17T18:16:01.976Z,96763.39
2018-09-17T18:18:31.262Z,96765.02
2018-09-17T18:21:00.524Z,96771.48
2018-09-17T18:23:29.691Z,96772.59
2018-09-17T18:25:58.860Z,96772.31
2018-09-17T18:28:28.872Z,96763.00
2018-09-17T18:30:58.724Z,96770.78
2018-09-17T18:33:28.802Z,96770.28
2018-09-17T18:35:58.752Z,96772.95
2018-09-17T18:38:28.693Z,96766.55
2018-09-17T18:40:58.732Z,96771.92
2018-09-17T18:43:28.771Z,96769.51
2018-09-17T18:45:58.851Z,96770.06
2018-09-17T18:48:28.886Z,96773.85
2018-09-17T18:50:58.963Z,96781.38
2018-09-17T18:53:28.803Z,96776.04
2018-09-17T18:56:00.735Z,96785.66
2018-09-17T18:58:29.904Z,96788.08
2018-09-17T19:00:59.155Z,96779.00
2018-09-17T19:03:28.890Z,96785.42
2018-09-17T19:05:59.126Z,96783.83
2018-09-17T19:08:29.948Z,96789.43
2018-09-17T19:10:59.903Z,96786.22
2018-09-17T19:13:29.187Z,96787.56
2018-09-17T19:16:00.404Z,96778.73
2018-09-17T19:18:29.572Z,96780.84
2018-09-17T19:20:59.104Z,96780.02
2018-09-17T19:23:34.121Z,96781.33
2018-09-17T19:26:03.314Z,96780.77
2018-09-17T19:28:37.639Z,96770.34
2018-09-17T19:31:07.006Z,96773.27
2018-09-17T19:33:36.272Z,96774.09
2018-09-17T19:36:05.462Z,96773.27
2018-09-17T19:38:39.951Z,96771.67
2018-09-17T19:41:09.360Z,96772.20
2018-09-17T19:43:38.533Z,96781.02
2018-09-17T19:46:19.527Z,96773.48
2018-09-17T19:48:49.247Z,96777.75
2018-09-17T19:51:23.928Z,96771.06
2018-09-17T19:53:53.158Z,96772.66
2018-09-17T19:56:22.463Z,96776.38
2018-09-17T19:58:56.863Z,96780.87
2018-09-17T20:01:26.535Z,96778.97
2018-09-17T20:03:55.703Z,96781.08
2018-09-17T20:06:26.657Z,96781.62
2018-09-17T20:08:55.943Z,96781.62
2018-09-17T20:11:25.108Z,96780.77
2018-09-17T20:13:54.475Z,96774.84
2018-09-17T20:16:23.770Z,96773.77
2018-09-17T20:18:52.935Z,96767.00
2018-09-17T20:21:22.189Z,96771.26
2018-09-17T20:23:51.439Z,96770.16
2018-09-17T20:26:20.659Z,96770.13
2018-09-17T20:28:49.830Z,96768.50
2018-09-17T20:31:19.500Z,96773.21
2018-09-17T20:33:48.806Z,96770.02
2018-09-17T20:36:18.072Z,96774.04
2018-09-17T20:38:47.380Z,96766.12
2018-09-17T20:41:16.543Z,96764.25
2018-09-17T20:43:45.690Z,96761.02
2018-09-17T20:46:14.970Z,96757.77
2018-09-17T20:48:44.177Z,96760.27
2018-09-17T20:51:13.324Z,96760.67
2018-09-17T20:53:42.582Z,96765.53
2018-09-17T20:56:11.830Z,96764.69
2018-09-17T20:58:41.028Z,96758.07
2018-09-17T21:01:10.387Z,96755.34
2018-09-17T21:03:39.432Z,96750.26
2018-09-17T21:06:08.591Z,96752.14
2018-09-17T21:08:37.723Z,96753.73
2018-09-17T21:11:06.872Z,96750.80
2018-09-17T21:13:36.075Z,96750.56
2018-09-17T21:16:05.258Z,96744.86
2018-09-17T21:18:34.425Z,96746.71
2018-09-17T21:21:03.560Z,96753.11
2018-09-17T21:23:32.703Z,96749.61
2018-09-17T21:26:01.844Z,96742.66
2018-09-17T21:28:30.978Z,96742.31
2018-09-17T21:31:00.251Z,96739.15
2018-09-17T21:33:29.359Z,96738.06
2018-09-17T21:35:59.256Z,96734.03
2018-09-17T21:38:29.274Z,96739.55
2018-09-17T21:40:59.431Z,96740.94
2018-09-17T21:43:29.321Z,96734.30
2018-09-17T21:45:59.239Z,96739.57
2018-09-17T21:48:29.255Z,96734.38
2018-09-17T21:50:59.763Z,96733.84
2018-09-17T21:53:29.287Z,96732.52
2018-09-17T21:55:59.328Z,96737.37
2018-09-17T21:58:29.328Z,96733.87
2018-09-17T22:01:00.281Z,96736.03
2018-09-17T22:03:30.663Z,96736.52
2018-09-17T22:05:59.882Z,96738.53
2018-09-17T22:08:29.886Z,96744.38
2018-09-17T22:10:59.424Z,96742.31
2018-09-17T22:13:29.537Z,96742.83
2018-09-17T22:15:59.361Z,96731.64
2018-09-17T22:18:28.520Z,96734.83
2018-09-17T22:20:57.660Z,96730.34
2018-09-17T22:23:26.831Z,96731.91
2018-09-17T22:25:56.003Z,96721.88
2018-09-17T22:28:25.164Z,96728.83
2018-09-17T22:30:54.582Z,96723.73
2018-09-17T22:33:23.760Z,96718.23
2018-09-17T22:35:52.923Z,96720.84
2018-09-17T22:38:22.212Z,96722.97
2018-09-17T22:40:51.381Z,96721.36
2018-09-17T22:43:20.569Z,96721.09
2018-09-17T22:45:49.713Z,96717.42
2018-09-17T22:48:19.128Z,96714.64
2018-09-17T22:50:48.304Z,96710.59
2018-09-17T22:53:17.457Z,96719.67
2018-09-17T22:55:46.612Z,96706.06
2018-09-17T22:58:15.813Z,96712.00
2018-09-17T23:00:44.956Z,96712.25
2018-09-17T23:03:14.116Z,96715.34
2018-09-17T23:05:43.289Z,96718.75
2018-09-17T23:08:12.451Z,96720.48
2018-09-17T23:10:41.587Z,96715.00
2018-09-17T23:13:10.750Z,96717.04
2018-09-17T23:15:40.082Z,96717.04
2018-09-17T23:18:09.222Z,96716.66
2018-09-17T23:20:39.083Z,96722.22
2018-09-17T23:23:08.232Z,96711.06
2018-09-17T23:25:37.635Z,96713.16
2018-09-17T23:28:06.894Z,96711.23
2018-09-17T23:30:36.054Z,96711.61
2018-09-17T23:33:05.207Z,96702.45
2018-09-17T23:35:34.442Z,96704.81
2018-09-17T23:38:04.260Z,96705.60
2018-09-17T23:40:34.103Z,96704.00
2018-09-17T23:43:04.135Z,96704.36
2018-09-17T23:45:34.254Z,96710.59
2018-09-17T23:48:04.062Z,96710.41
2018-09-17T23:50:34.107Z,96707.56
2018-09-17T23:53:04.078Z,96711.25
2018-09-17T23:55:34.148Z,96709.95
2018-09-17T23:58:04.200Z,96706.60
